Time;durP1;ratioP1;P1;durP2;ratioP2;P2;SDS_P1;SDS_P2;PMS_P1;PMS_P2;Temp;Humidity;BMP_temperature;BMP_pressure;BME280_temperature;BME280_humidity;BME280_pressure;Samples;Min_cycle;Max_cycle;Signal;HPM_P1;HPM_P2
2023/08/06 00:00:20;;;;;;;19.13;15.88;;;;;;;;;;4991643;28;20023;-73
2023/08/06 00:02:46;;;;;;;19.30;15.95;;;;;;;;;;4996931;28;20030;-73
2023/08/06 00:05:12;;;;;;;16.55;13.95;;;;;;;;;;4991640;28;20029;-72
2023/08/06 00:07:38;;;;;;;19.77;15.38;;;;;;;;;;4990591;28;20450;-71
2023/08/06 00:10:04;;;;;;;18.70;16.55;;;;;;;;;;4992375;28;20118;-73
2023/08/06 00:12:30;;;;;;;19.55;16.65;;;;;;;;;;4989142;28;20157;-72
2023/08/06 00:14:56;;;;;;;21.98;16.88;;;;;;;;;;4991265;28;20041;-72
2023/08/06 00:17:22;;;;;;;21.92;18.00;;;;;;;;;;4997693;28;20018;-73
2023/08/06 00:19:48;;;;;;;19.80;16.85;;;;;;;;;;5002860;28;20022;-73
2023/08/06 00:22:14;;;;;;;21.10;17.83;;;;;;;;;;4994369;28;20030;-71
2023/08/06 00:24:40;;;;;;;20.42;16.63;;;;;;;;;;4994421;28;20139;-72
2023/08/06 00:27:06;;;;;;;29.73;17.35;;;;;;;;;;5002031;28;20501;-72
2023/08/06 00:29:32;;;;;;;23.52;18.90;;;;;;;;;;4994041;28;20061;-73
2023/08/06 00:31:58;;;;;;;30.00;19.40;;;;;;;;;;5002498;28;20023;-72
2023/08/06 00:34:24;;;;;;;26.35;19.95;;;;;;;;;;4994015;28;20018;-72
2023/08/06 00:36:50;;;;;;;22.75;17.52;;;;;;;;;;4998771;28;20496;-72
2023/08/06 00:39:16;;;;;;;23.73;18.95;;;;;;;;;;4996897;28;20026;-72
2023/08/06 00:41:42;;;;;;;22.38;16.80;;;;;;;;;;4993907;28;20026;-71
2023/08/06 00:44:08;;;;;;;29.27;19.02;;;;;;;;;;4994182;28;20026;-72
2023/08/06 00:46:34;;;;;;;25.98;19.63;;;;;;;;;;4993697;28;20109;-71
2023/08/06 00:49:00;;;;;;;27.95;19.10;;;;;;;;;;4993655;28;20190;-72
2023/08/06 00:51:27;;;;;;;26.17;19.55;;;;;;;;;;4992334;28;20476;-72
2023/08/06 00:53:53;;;;;;;28.73;19.55;;;;;;;;;;4993807;28;20157;-71
2023/08/06 00:56:19;;;;;;;30.60;20.08;;;;;;;;;;4993556;28;20398;-72
2023/08/06 00:58:46;;;;;;;33.15;21.98;;;;;;;;;;4992047;28;20362;-71
2023/08/06 01:01:12;;;;;;;37.55;21.88;;;;;;;;;;4992312;28;20038;-74
2023/08/06 01:03:38;;;;;;;38.67;25.25;;;;;;;;;;4993664;28;20027;-73
2023/08/06 01:06:05;;;;;;;36.90;25.35;;;;;;;;;;5001623;28;20030;-73
2023/08/06 01:08:49;;;;;;;53.40;27.63;;;;;;;;;;4994778;28;20053;-72
2023/08/06 01:11:18;;;;;;;56.13;29.45;;;;;;;;;;4993178;28;20409;-71
2023/08/06 01:13:47;;;;;;;80.28;34.13;;;;;;;;;;4993368;28;20385;-73
2023/08/06 01:16:17;;;;;;;57.33;29.48;;;;;;;;;;5000734;28;20042;-72
2023/08/06 01:18:46;;;;;;;54.27;30.10;;;;;;;;;;4992991;28;20072;-72
2023/08/06 01:21:13;;;;;;;63.75;30.13;;;;;;;;;;4991783;28;20785;-72
2023/08/06 01:23:39;;;;;;;44.00;28.00;;;;;;;;;;4992930;28;20027;-73
2023/08/06 01:26:14;;;;;;;39.47;24.92;;;;;;;;;;4993171;28;20061;-72
2023/08/06 01:28:40;;;;;;;60.50;29.55;;;;;;;;;;4992861;28;20046;-72
2023/08/06 01:31:07;;;;;;;66.15;32.95;;;;;;;;;;4991449;28;20089;-71
2023/08/06 01:33:35;;;;;;;38.13;23.75;;;;;;;;;;4995569;28;20033;-73
2023/08/06 01:36:01;;;;;;;47.28;28.45;;;;;;;;;;4998022;28;20105;-73
2023/08/06 01:38:28;;;;;;;67.50;31.70;;;;;;;;;;5000927;28;20026;-73
2023/08/06 01:40:54;;;;;;;52.38;29.35;;;;;;;;;;4992661;28;20022;-71
2023/08/06 01:43:20;;;;;;;75.78;32.55;;;;;;;;;;4992817;28;20422;-72
2023/08/06 01:45:46;;;;;;;43.78;26.23;;;;;;;;;;5000973;28;20030;-73
2023/08/06 01:48:12;;;;;;;34.00;22.15;;;;;;;;;;5000483;28;20030;-72
2023/08/06 01:50:38;;;;;;;43.78;25.10;;;;;;;;;;4994435;28;20018;-73
2023/08/06 01:53:04;;;;;;;32.92;22.13;;;;;;;;;;5005445;28;20022;-73
2023/08/06 01:55:30;;;;;;;70.95;30.83;;;;;;;;;;4997166;28;20108;-73
2023/08/06 01:57:56;;;;;;;57.30;27.42;;;;;;;;;;4992463;28;20449;-73
2023/08/06 02:00:22;;;;;;;43.95;24.30;;;;;;;;;;4996869;28;20026;-73
2023/08/06 02:02:48;;;;;;;48.67;25.67;;;;;;;;;;4992313;28;20105;-71
2023/08/06 02:05:14;;;;;;;52.10;26.52;;;;;;;;;;4992300;28;20490;-68
2023/08/06 02:07:40;;;;;;;77.72;31.95;;;;;;;;;;4992253;28;20054;-71
2023/08/06 02:10:07;;;;;;;35.03;23.02;;;;;;;;;;4994009;28;20061;-71
2023/08/06 02:12:33;;;;;;;46.95;25.55;;;;;;;;;;4992418;28;20054;-72
2023/08/06 02:14:59;;;;;;;43.55;24.65;;;;;;;;;;4991179;28;20018;-71
2023/08/06 02:17:25;;;;;;;44.13;22.88;;;;;;;;;;4999477;28;20397;-70
2023/08/06 02:19:51;;;;;;;38.53;22.27;;;;;;;;;;4992225;28;20037;-72
2023/08/06 02:22:17;;;;;;;59.95;29.30;;;;;;;;;;5000307;28;20508;-72
2023/08/06 02:24:43;;;;;;;64.30;27.88;;;;;;;;;;5000378;28;20417;-72
2023/08/06 02:27:09;;;;;;;45.35;24.00;;;;;;;;;;4999373;28;20037;-72
2023/08/06 02:29:35;;;;;;;43.10;25.13;;;;;;;;;;4992673;28;20030;-72
2023/08/06 02:32:02;;;;;;;72.05;32.28;;;;;;;;;;4992242;28;20015;-72
2023/08/06 02:34:28;;;;;;;36.35;23.70;;;;;;;;;;4993851;28;20034;-72
2023/08/06 02:36:54;;;;;;;45.95;26.45;;;;;;;;;;4993505;28;20496;-72
2023/08/06 02:39:20;;;;;;;39.15;22.25;;;;;;;;;;5002252;28;20057;-72
2023/08/06 02:41:46;;;;;;;47.17;26.63;;;;;;;;;;5005630;28;20014;-72
2023/08/06 02:44:12;;;;;;;54.55;27.08;;;;;;;;;;4998662;28;20022;-72
2023/08/06 02:46:38;;;;;;;61.53;29.02;;;;;;;;;;4995017;28;20045;-74
2023/08/06 02:49:04;;;;;;;53.45;27.52;;;;;;;;;;4994722;28;20053;-72
2023/08/06 02:51:30;;;;;;;56.03;26.48;;;;;;;;;;4994204;28;20027;-72
2023/08/06 02:53:56;;;;;;;52.45;27.98;;;;;;;;;;4991569;28;20022;-73
2023/08/06 02:56:22;;;;;;;54.05;27.15;;;;;;;;;;4991495;28;20093;-73
2023/08/06 02:58:48;;;;;;;41.78;24.67;;;;;;;;;;4991298;28;20014;-72
2023/08/06 03:01:14;;;;;;;63.20;29.20;;;;;;;;;;4989916;28;20041;-73
2023/08/06 03:03:40;;;;;;;39.13;23.88;;;;;;;;;;4990392;28;20030;-72
2023/08/06 03:06:06;;;;;;;58.35;29.17;;;;;;;;;;4991601;28;20121;-71
2023/08/06 03:08:32;;;;;;;48.38;26.50;;;;;;;;;;4991437;28;20481;-72
2023/08/06 03:10:58;;;;;;;61.85;29.40;;;;;;;;;;4997143;28;20397;-71
2023/08/06 03:13:24;;;;;;;82.20;32.40;;;;;;;;;;5001407;28;20025;-72
2023/08/06 03:15:55;;;;;;;54.17;27.55;;;;;;;;;;4994342;28;20022;-71
2023/08/06 03:18:21;;;;;;;48.97;26.95;;;;;;;;;;4993627;28;20614;-72
2023/08/06 03:20:47;;;;;;;33.97;23.20;;;;;;;;;;4999457;28;20050;-72
2023/08/06 03:23:13;;;;;;;61.42;29.65;;;;;;;;;;4991409;28;20111;-72
2023/08/06 03:25:39;;;;;;;52.95;26.55;;;;;;;;;;4994602;28;20026;-74
2023/08/06 03:28:05;;;;;;;47.95;28.05;;;;;;;;;;5006857;28;20030;-72
2023/08/06 03:30:31;;;;;;;48.83;27.15;;;;;;;;;;4991726;28;20053;-72
2023/08/06 03:32:57;;;;;;;44.45;26.02;;;;;;;;;;4991271;28;20459;-72
2023/08/06 03:35:23;;;;;;;51.67;28.23;;;;;;;;;;4998817;28;20026;-72
2023/08/06 03:37:49;;;;;;;45.15;25.88;;;;;;;;;;4995493;28;20019;-71
2023/08/06 03:40:16;;;;;;;56.72;28.85;;;;;;;;;;4989344;28;20109;-72
2023/08/06 03:42:42;;;;;;;39.97;24.50;;;;;;;;;;4992662;28;20077;-73
2023/08/06 03:45:08;;;;;;;57.53;26.42;;;;;;;;;;4989090;28;20030;-74
2023/08/06 03:47:34;;;;;;;105.95;37.47;;;;;;;;;;4990086;28;20101;-73
2023/08/06 03:50:00;;;;;;;56.13;29.77;;;;;;;;;;4990309;28;20490;-73
2023/08/06 03:52:26;;;;;;;38.08;23.42;;;;;;;;;;4991477;28;20036;-73
2023/08/06 03:54:52;;;;;;;65.47;31.10;;;;;;;;;;4997133;28;20028;-72
2023/08/06 03:57:19;;;;;;;129.27;50.35;;;;;;;;;;4991942;28;20109;-72
2023/08/06 03:59:45;;;;;;;48.22;26.02;;;;;;;;;;4992460;28;20409;-72
2023/08/06 04:02:11;;;;;;;64.00;29.88;;;;;;;;;;5002034;28;20109;-73
2023/08/06 04:04:37;;;;;;;45.88;24.65;;;;;;;;;;5001388;28;20034;-73
2023/08/06 04:07:03;;;;;;;58.70;28.05;;;;;;;;;;5006112;28;20025;-73
2023/08/06 04:09:29;;;;;;;88.78;35.25;;;;;;;;;;5006556;28;20041;-72
2023/08/06 04:11:56;;;;;;;52.58;27.35;;;;;;;;;;5007213;28;20023;-71
2023/08/06 04:14:22;;;;;;;59.42;26.75;;;;;;;;;;5003221;28;20026;-73
2023/08/06 04:16:48;;;;;;;65.75;28.65;;;;;;;;;;5013833;28;20026;-72
2023/08/06 04:19:14;;;;;;;46.20;25.17;;;;;;;;;;5005911;28;20084;-73
2023/08/06 04:21:40;;;;;;;44.80;25.45;;;;;;;;;;4999297;28;20019;-73
2023/08/06 04:24:06;;;;;;;37.70;23.00;;;;;;;;;;5013566;28;20037;-73
2023/08/06 04:26:32;;;;;;;20.45;17.42;;;;;;;;;;5013416;28;20022;-73
2023/08/06 04:28:58;;;;;;;51.22;27.38;;;;;;;;;;4999371;28;20018;-73
2023/08/06 04:31:24;;;;;;;98.20;39.30;;;;;;;;;;5009218;28;20034;-71
2023/08/06 04:33:50;;;;;;;47.83;26.20;;;;;;;;;;5000841;28;20608;-73
2023/08/06 04:36:16;;;;;;;41.45;25.00;;;;;;;;;;5002018;28;20465;-72
2023/08/06 04:38:44;;;;;;;45.00;26.65;;;;;;;;;;4995601;28;20508;-72
2023/08/06 04:41:11;;;;;;;57.92;28.58;;;;;;;;;;4994143;28;20049;-72
2023/08/06 04:43:37;;;;;;;82.50;35.00;;;;;;;;;;4994196;28;20026;-72
2023/08/06 04:46:03;;;;;;;287.05;76.53;;;;;;;;;;4999978;28;20080;-72
2023/08/06 04:48:29;;;;;;;82.97;33.78;;;;;;;;;;4997355;28;20401;-71
2023/08/06 04:50:55;;;;;;;46.65;26.30;;;;;;;;;;4995701;28;20027;-72
2023/08/06 04:53:21;;;;;;;38.17;22.77;;;;;;;;;;4992873;28;20443;-72
2023/08/06 04:55:47;;;;;;;52.33;26.30;;;;;;;;;;4993456;28;20042;-71
2023/08/06 04:58:16;;;;;;;36.28;22.08;;;;;;;;;;4993563;28;20053;-70
2023/08/06 05:00:42;;;;;;;37.45;22.83;;;;;;;;;;5001229;28;20061;-70
2023/08/06 05:03:08;;;;;;;45.40;24.85;;;;;;;;;;4999901;28;20030;-71
2023/08/06 05:05:34;;;;;;;31.10;19.02;;;;;;;;;;5002394;28;20030;-70
2023/08/06 05:08:00;;;;;;;33.90;21.05;;;;;;;;;;4993491;28;20054;-71
2023/08/06 05:10:27;;;;;;;27.75;19.38;;;;;;;;;;4996761;28;20065;-71
2023/08/06 05:12:53;;;;;;;33.30;20.77;;;;;;;;;;5005094;28;20493;-70
2023/08/06 05:15:19;;;;;;;35.35;22.20;;;;;;;;;;5001593;28;20026;-71
2023/08/06 05:17:45;;;;;;;41.90;25.20;;;;;;;;;;5002004;28;20018;-71
2023/08/06 05:20:11;;;;;;;40.00;24.30;;;;;;;;;;4994025;28;20026;-73
2023/08/06 05:22:37;;;;;;;47.30;27.00;;;;;;;;;;4999748;28;20056;-72
2023/08/06 05:25:04;;;;;;;37.35;24.10;;;;;;;;;;5009419;28;20029;-72
2023/08/06 05:27:30;;;;;;;52.22;27.70;;;;;;;;;;4994683;28;20464;-71
2023/08/06 05:29:56;;;;;;;38.85;24.60;;;;;;;;;;5006963;28;20493;-71
2023/08/06 05:32:23;;;;;;;42.80;25.42;;;;;;;;;;5003773;28;20029;-72
2023/08/06 05:34:49;;;;;;;40.55;26.45;;;;;;;;;;4997566;28;20042;-71
2023/08/06 05:37:15;;;;;;;50.40;27.65;;;;;;;;;;4999754;28;20119;-71
2023/08/06 05:39:41;;;;;;;60.42;31.08;;;;;;;;;;4991370;28;20065;-73
2023/08/06 05:42:07;;;;;;;35.17;23.80;;;;;;;;;;4997578;28;20057;-71
2023/08/06 05:44:33;;;;;;;43.08;26.75;;;;;;;;;;5003573;28;20030;-72
2023/08/06 05:46:59;;;;;;;43.05;28.45;;;;;;;;;;5005745;28;20040;-71
2023/08/06 05:49:25;;;;;;;50.05;30.23;;;;;;;;;;5000913;28;20043;-71
2023/08/06 05:51:53;;;;;;;45.67;28.83;;;;;;;;;;4990898;28;20034;-72
2023/08/06 05:54:19;;;;;;;50.50;30.08;;;;;;;;;;5007437;28;20018;-71
2023/08/06 05:56:45;;;;;;;1349.03;634.78;;;;;;;;;;5009295;28;20105;-71
2023/08/06 05:59:11;;;;;;;43.92;28.38;;;;;;;;;;5004461;28;20447;-72
2023/08/06 06:01:37;;;;;;;272.15;72.18;;;;;;;;;;5014052;28;20436;-72
2023/08/06 06:04:03;;;;;;;46.95;27.38;;;;;;;;;;5011652;28;20531;-71
2023/08/06 06:06:29;;;;;;;39.63;25.52;;;;;;;;;;4993710;28;20085;-72
2023/08/06 06:08:55;;;;;;;60.45;29.55;;;;;;;;;;5005520;28;20022;-73
2023/08/06 06:11:22;;;;;;;46.40;26.45;;;;;;;;;;5007346;28;20379;-72
2023/08/06 06:13:49;;;;;;;31.52;22.77;;;;;;;;;;4999035;28;20038;-71
2023/08/06 06:16:15;;;;;;;24.70;18.27;;;;;;;;;;4999123;28;20014;-71
2023/08/06 06:18:41;;;;;;;44.28;24.98;;;;;;;;;;4992054;28;20029;-71
2023/08/06 06:21:08;;;;;;;38.47;23.15;;;;;;;;;;4992151;28;20033;-73
2023/08/06 06:23:34;;;;;;;35.50;22.67;;;;;;;;;;4992173;28;20033;-71
2023/08/06 06:26:00;;;;;;;31.13;20.55;;;;;;;;;;5004809;28;20037;-71
2023/08/06 06:28:26;;;;;;;30.58;20.33;;;;;;;;;;4992358;28;20034;-71
2023/08/06 06:30:52;;;;;;;28.95;20.88;;;;;;;;;;4993759;28;20622;-71
2023/08/06 06:33:18;;;;;;;35.17;23.15;;;;;;;;;;5024773;22;20044;-75
2023/08/06 06:35:44;;;;;;;34.50;22.00;;;;;;;;;;5044134;28;20021;-74
2023/08/06 06:38:10;;;;;;;23.10;16.80;;;;;;;;;;5048754;28;20439;-72
2023/08/06 06:40:36;;;;;;;25.98;18.80;;;;;;;;;;5051664;28;20116;-73
2023/08/06 06:43:02;;;;;;;26.00;17.92;;;;;;;;;;5045950;28;20075;-74
2023/08/06 06:45:28;;;;;;;21.52;15.25;;;;;;;;;;5027804;28;20033;-74
2023/08/06 06:47:54;;;;;;;15.70;14.00;;;;;;;;;;5024084;28;20025;-72
2023/08/06 06:50:20;;;;;;;19.45;15.77;;;;;;;;;;5019491;28;20425;-74
2023/08/06 06:52:46;;;;;;;22.88;16.60;;;;;;;;;;5030727;28;20061;-74
2023/08/06 06:55:12;;;;;;;20.00;15.18;;;;;;;;;;5031458;28;20407;-72
2023/08/06 06:57:38;;;;;;;20.42;15.85;;;;;;;;;;5019866;28;20025;-72
2023/08/06 07:00:04;;;;;;;23.88;17.00;;;;;;;;;;5026016;28;20175;-74
2023/08/06 07:02:30;;;;;;;19.38;15.27;;;;;;;;;;5022011;28;20105;-74
2023/08/06 07:04:56;;;;;;;15.57;12.27;;;;;;;;;;5023456;28;20121;-72
2023/08/06 07:07:22;;;;;;;15.30;11.27;;;;;;;;;;5034404;28;20025;-72
2023/08/06 07:09:48;;;;;;;14.95;12.50;;;;;;;;;;5028181;28;20025;-72
2023/08/06 07:12:14;;;;;;;14.98;12.02;;;;;;;;;;5034492;28;20032;-71
2023/08/06 07:14:40;;;;;;;16.63;12.05;;;;;;;;;;5034269;28;20480;-72
2023/08/06 07:17:06;;;;;;;16.60;12.65;;;;;;;;;;5029746;28;20017;-74
2023/08/06 07:19:32;;;;;;;16.83;13.10;;;;;;;;;;5022545;28;20021;-74
2023/08/06 07:21:58;;;;;;;14.90;12.90;;;;;;;;;;5031383;28;20092;-73
2023/08/06 07:24:24;;;;;;;17.85;14.20;;;;;;;;;;5028616;28;20053;-74
2023/08/06 07:26:50;;;;;;;18.75;15.85;;;;;;;;;;5027033;28;20022;-74
2023/08/06 07:29:20;;;;;;;16.42;12.02;;;;;;;;;;5031329;28;20017;-73
2023/08/06 07:31:46;;;;;;;11.55;10.35;;;;;;;;;;5022903;28;20022;-73
2023/08/06 07:34:12;;;;;;;13.30;9.25;;;;;;;;;;5039921;28;20035;-73
2023/08/06 07:36:39;;;;;;;12.82;9.82;;;;;;;;;;5036202;28;20473;-73
2023/08/06 07:39:06;;;;;;;11.90;10.68;;;;;;;;;;5031007;28;20025;-73
2023/08/06 07:41:32;;;;;;;10.13;8.32;;;;;;;;;;5037257;28;20512;-74
2023/08/06 07:43:58;;;;;;;40.45;27.40;;;;;;;;;;5027789;28;20382;-74
2023/08/06 07:46:24;;;;;;;11.07;9.05;;;;;;;;;;5025059;28;20037;-74
2023/08/06 07:48:50;;;;;;;14.45;9.23;;;;;;;;;;5029039;28;20026;-75
2023/08/06 07:51:16;;;;;;;16.88;11.63;;;;;;;;;;5030628;28;20076;-74
2023/08/06 07:53:42;;;;;;;8.77;5.97;;;;;;;;;;5024093;28;20029;-75
2023/08/06 07:56:08;;;;;;;7.20;6.57;;;;;;;;;;5025462;28;20026;-74
2023/08/06 07:58:34;;;;;;;6.00;5.40;;;;;;;;;;5024969;28;20022;-75
2023/08/06 08:01:00;;;;;;;9.68;5.20;;;;;;;;;;5029174;28;20128;-75
2023/08/06 08:03:26;;;;;;;6.18;5.57;;;;;;;;;;5028252;28;20036;-74
2023/08/06 08:05:57;;;;;;;6.60;4.80;;;;;;;;;;5031765;28;20072;-75
2023/08/06 08:08:23;;;;;;;5.85;5.32;;;;;;;;;;5032064;28;20018;-75
2023/08/06 08:10:49;;;;;;;6.57;4.97;;;;;;;;;;5031487;28;20033;-75
2023/08/06 08:13:15;;;;;;;9.65;4.72;;;;;;;;;;5045401;28;20029;-75
2023/08/06 08:15:41;;;;;;;5.38;4.38;;;;;;;;;;5027674;28;20029;-65
2023/08/06 08:18:08;;;;;;;14.52;10.32;;;;;;;;;;5023194;28;20064;-66
2023/08/06 08:20:35;;;;;;;27.27;18.90;;;;;;;;;;5027063;28;20050;-66
2023/08/06 08:23:01;;;;;;;29.95;21.20;;;;;;;;;;5029299;28;20041;-65
2023/08/06 08:25:28;;;;;;;9.05;7.20;;;;;;;;;;5020677;28;20018;-65
2023/08/06 08:27:54;;;;;;;6.90;5.40;;;;;;;;;;5026279;28;20022;-66
2023/08/06 08:30:20;;;;;;;14.60;10.60;;;;;;;;;;5023031;28;20505;-65
2023/08/06 08:32:48;;;;;;;4.90;3.90;;;;;;;;;;5024888;28;20033;-66
2023/08/06 08:35:15;;;;;;;2.38;2.17;;;;;;;;;;5030069;28;20032;-66
2023/08/06 08:37:41;;;;;;;2.63;2.42;;;;;;;;;;5022514;28;20021;-74
2023/08/06 08:40:08;;;;;;;5.20;2.55;;;;;;;;;;5025684;28;20104;-76
2023/08/06 08:42:35;;;;;;;2.65;2.45;;;;;;;;;;5023382;28;20026;-73
2023/08/06 08:45:01;;;;;;;3.42;2.88;;;;;;;;;;5024100;28;20033;-73
2023/08/06 08:47:27;;;;;;;3.47;3.10;;;;;;;;;;5027247;28;20403;-74
2023/08/06 08:49:55;;;;;;;4.55;2.70;;;;;;;;;;5023287;28;20115;-74
2023/08/06 08:52:22;;;;;;;5.15;2.60;;;;;;;;;;5022911;28;20034;-74
2023/08/06 08:54:52;;;;;;;2.95;2.25;;;;;;;;;;5023886;28;20018;-73
2023/08/06 08:57:19;;;;;;;3.50;2.58;;;;;;;;;;5028983;28;20484;-73
2023/08/06 08:59:45;;;;;;;2.00;1.90;;;;;;;;;;5023126;28;20436;-76
2023/08/06 09:02:15;;;;;;;2.60;2.40;;;;;;;;;;5030388;28;20059;-77
2023/08/06 09:04:41;;;;;;;4.65;2.45;;;;;;;;;;5026683;28;20025;-76
2023/08/06 09:07:09;;;;;;;2.95;2.28;;;;;;;;;;5029485;28;20047;-76
2023/08/06 09:09:39;;;;;;;2.03;1.83;;;;;;;;;;5022989;28;20362;-76
2023/08/06 09:12:12;;;;;;;3.05;2.60;;;;;;;;;;5026055;28;20029;-75
2023/08/06 09:14:38;;;;;;;3.38;2.80;;;;;;;;;;5030746;28;20375;-75
2023/08/06 09:17:05;;;;;;;2.97;2.70;;;;;;;;;;5032800;28;20404;-74
2023/08/06 09:19:32;;;;;;;3.75;2.15;;;;;;;;;;5025308;28;20020;-75
2023/08/06 09:21:58;;;;;;;3.22;2.33;;;;;;;;;;5023219;28;20022;-74
2023/08/06 09:24:24;;;;;;;2.80;2.25;;;;;;;;;;5026892;28;20034;-75
2023/08/06 09:26:50;;;;;;;3.70;2.45;;;;;;;;;;5024611;28;20490;-76
2023/08/06 09:29:16;;;;;;;3.00;2.55;;;;;;;;;;5028092;28;20101;-75
2023/08/06 09:31:42;;;;;;;3.50;2.50;;;;;;;;;;5024652;28;20129;-75
2023/08/06 09:34:19;;;;;;;3.83;2.50;;;;;;;;;;5024857;28;20113;-75
2023/08/06 09:36:54;;;;;;;3.47;2.47;;;;;;;;;;5026220;28;20452;-75
2023/08/06 09:39:27;;;;;;;4.05;2.65;;;;;;;;;;5027926;28;20032;-75
2023/08/06 09:41:56;;;;;;;3.30;2.97;;;;;;;;;;5022220;28;20029;-75
2023/08/06 09:44:23;;;;;;;3.28;2.80;;;;;;;;;;5020691;28;20026;-75
2023/08/06 09:46:50;;;;;;;5.13;3.60;;;;;;;;;;5029075;28;20021;-75
2023/08/06 09:49:19;;;;;;;2.70;2.50;;;;;;;;;;5047330;28;20120;-75
2023/08/06 09:51:46;;;;;;;3.28;2.88;;;;;;;;;;5024442;28;20022;-74
2023/08/06 09:54:16;;;;;;;2.35;2.15;;;;;;;;;;5027592;28;20106;-74
2023/08/06 09:56:42;;;;;;;6.35;2.58;;;;;;;;;;5042500;28;20341;-75
2023/08/06 09:59:10;;;;;;;2.85;2.55;;;;;;;;;;5047325;28;20017;-74
2023/08/06 10:01:37;;;;;;;5.28;2.42;;;;;;;;;;5036815;28;20037;-74
2023/08/06 10:04:06;;;;;;;5.85;2.72;;;;;;;;;;5034095;28;20048;-75
2023/08/06 10:06:35;;;;;;;2.50;2.30;;;;;;;;;;5031384;28;20067;-74
2023/08/06 10:09:01;;;;;;;3.65;2.53;;;;;;;;;;5027963;28;20024;-75
2023/08/06 10:11:29;;;;;;;3.67;2.60;;;;;;;;;;5026543;28;20029;-77
2023/08/06 10:14:04;;;;;;;3.47;2.40;;;;;;;;;;5027828;28;20017;-74
2023/08/06 10:16:31;;;;;;;4.88;2.50;;;;;;;;;;5032375;28;20022;-76
2023/08/06 10:18:58;;;;;;;4.55;2.47;;;;;;;;;;5034648;28;20389;-74
2023/08/06 10:21:27;;;;;;;3.03;2.65;;;;;;;;;;5027949;28;20083;-75
2023/08/06 10:23:57;;;;;;;2.65;2.30;;;;;;;;;;5024218;28;20486;-76
2023/08/06 10:26:27;;;;;;;2.38;2.17;;;;;;;;;;5028552;28;20034;-75
2023/08/06 10:28:54;;;;;;;3.70;2.10;;;;;;;;;;5034843;28;20032;-76
2023/08/06 10:31:20;;;;;;;2.80;2.17;;;;;;;;;;5041406;28;20029;-75
2023/08/06 10:33:47;;;;;;;3.47;2.25;;;;;;;;;;5036220;28;20165;-75
2023/08/06 10:36:13;;;;;;;5.53;2.17;;;;;;;;;;5026331;28;20018;-74
2023/08/06 10:38:49;;;;;;;2.35;1.70;;;;;;;;;;5023739;28;20018;-74
2023/08/06 10:41:16;;;;;;;2.35;2.15;;;;;;;;;;5029489;28;20074;-74
2023/08/06 10:43:44;;;;;;;4.45;2.10;;;;;;;;;;5028660;28;20049;-74
2023/08/06 10:46:11;;;;;;;1.80;1.70;;;;;;;;;;5031524;28;20033;-74
2023/08/06 10:48:41;;;;;;;4.28;2.22;;;;;;;;;;5026571;28;20029;-74
2023/08/06 10:51:08;;;;;;;1.85;1.55;;;;;;;;;;5027023;28;20025;-74
2023/08/06 10:53:34;;;;;;;2.30;1.83;;;;;;;;;;5031786;28;20064;-74
2023/08/06 10:56:01;;;;;;;2.28;1.90;;;;;;;;;;5034018;28;20017;-74
2023/08/06 10:58:31;;;;;;;1.70;1.60;;;;;;;;;;5029699;28;20022;-74
2023/08/06 11:00:57;;;;;;;3.53;1.73;;;;;;;;;;5031661;28;20156;-74
2023/08/06 11:03:23;;;;;;;6.78;1.95;;;;;;;;;;5027927;28;20057;-74
2023/08/06 11:05:50;;;;;;;1.73;1.63;;;;;;;;;;5027717;28;20113;-74
2023/08/06 11:08:28;;;;;;;3.03;2.15;;;;;;;;;;5020646;28;20084;-74
2023/08/06 11:10:55;;;;;;;2.30;2.03;;;;;;;;;;5023891;28;20113;-74
2023/08/06 11:13:22;;;;;;;2.72;1.88;;;;;;;;;;5026583;28;20076;-74
2023/08/06 11:15:48;;;;;;;3.15;2.03;;;;;;;;;;5028895;28;20056;-75
2023/08/06 11:18:14;;;;;;;2.85;2.10;;;;;;;;;;5024291;28;20064;-75
2023/08/06 11:20:40;;;;;;;2.40;2.20;;;;;;;;;;5019681;28;20028;-74
2023/08/06 11:23:06;;;;;;;2.70;1.70;;;;;;;;;;5021557;28;20025;-74
2023/08/06 11:25:37;;;;;;;1.70;1.60;;;;;;;;;;5025252;28;20400;-74
2023/08/06 11:28:03;;;;;;;2.50;2.30;;;;;;;;;;5019127;28;20109;-75
2023/08/06 11:30:32;;;;;;;2.92;2.00;;;;;;;;;;5019108;28;20037;-75
2023/08/06 11:32:58;;;;;;;7.65;5.72;;;;;;;;;;5024966;28;20033;-62
2023/08/06 11:35:24;;;;;;;13.43;9.55;;;;;;;;;;5024387;28;20036;-62
2023/08/06 11:37:50;;;;;;;78.53;60.28;;;;;;;;;;5020495;28;20014;-62
2023/08/06 11:40:17;;;;;;;28.75;22.25;;;;;;;;;;5020782;28;20026;-62
2023/08/06 11:42:43;;;;;;;14.07;11.07;;;;;;;;;;5021238;28;20029;-62
2023/08/06 11:45:09;;;;;;;23.85;18.98;;;;;;;;;;5027426;28;20025;-62
2023/08/06 11:47:39;;;;;;;10.07;8.13;;;;;;;;;;5030579;28;20063;-62
2023/08/06 11:50:05;;;;;;;13.02;5.95;;;;;;;;;;5026936;28;20392;-66
2023/08/06 11:52:31;;;;;;;3.78;2.80;;;;;;;;;;5025272;28;20022;-63
2023/08/06 11:55:02;;;;;;;2.45;2.13;;;;;;;;;;5024497;28;20025;-62
2023/08/06 11:57:32;;;;;;;19.63;12.90;;;;;;;;;;5031679;28;20032;-62
2023/08/06 11:59:58;;;;;;;5.57;2.92;;;;;;;;;;5020850;28;20026;-61
2023/08/06 12:02:27;;;;;;;2.13;1.90;;;;;;;;;;5020709;28;20041;-62
2023/08/06 12:05:07;;;;;;;6.38;3.70;;;;;;;;;;5024202;28;20026;-62
2023/08/06 12:07:34;;;;;;;5.57;2.83;;;;;;;;;;5021579;28;20017;-62
2023/08/06 12:10:00;;;;;;;5.57;4.40;;;;;;;;;;5020746;28;20018;-62
2023/08/06 12:12:26;;;;;;;4.53;2.10;;;;;;;;;;5020491;28;20046;-62
2023/08/06 12:14:52;;;;;;;3.67;2.10;;;;;;;;;;5026839;28;20152;-62
2023/08/06 12:17:18;;;;;;;1.90;1.75;;;;;;;;;;5032915;28;20104;-62
2023/08/06 12:19:46;;;;;;;2.58;2.38;;;;;;;;;;5023859;28;20024;-65
2023/08/06 12:22:13;;;;;;;100.47;66.45;;;;;;;;;;5023788;28;20504;-63
2023/08/06 12:24:45;;;;;;;9.35;5.47;;;;;;;;;;5024093;28;20022;-64
2023/08/06 12:27:11;;;;;;;46.83;31.75;;;;;;;;;;5030544;28;20025;-62
2023/08/06 12:29:41;;;;;;;49.58;32.53;;;;;;;;;;5028120;28;20033;-62
2023/08/06 12:32:07;;;;;;;22.30;16.23;;;;;;;;;;5029015;28;20034;-62
2023/08/06 12:34:46;;;;;;;;;;;;;;;;;;;;;
2023/08/06 12:37:14;;;;;;;18.58;14.82;;;;;;;;;;5081464;28;20059;-68
2023/08/06 12:39:40;;;;;;;5.07;4.25;;;;;;;;;;5091659;28;20025;-68
2023/08/06 12:42:06;;;;;;;2.80;2.50;;;;;;;;;;5093715;28;20028;-68
2023/08/06 12:44:33;;;;;;;4.18;2.55;;;;;;;;;;5093627;28;20479;-67
2023/08/06 12:46:59;;;;;;;2.15;1.70;;;;;;;;;;5063502;28;20028;-66
2023/08/06 12:49:26;;;;;;;2.42;1.90;;;;;;;;;;5089190;28;20020;-66
2023/08/06 12:51:53;;;;;;;3.20;2.03;;;;;;;;;;5085952;28;20051;-66
2023/08/06 12:54:19;;;;;;;4.75;2.47;;;;;;;;;;5068551;28;20020;-66
2023/08/06 12:56:48;;;;;;;2.67;2.15;;;;;;;;;;5093142;28;20130;-67
2023/08/06 12:59:15;;;;;;;5.47;3.70;;;;;;;;;;5063467;28;20663;-68
2023/08/06 13:01:42;;;;;;;2.83;1.70;;;;;;;;;;5093217;28;20491;-66
2023/08/06 13:04:08;;;;;;;3.08;2.00;;;;;;;;;;5093509;28;20032;-67
2023/08/06 13:06:37;;;;;;;4.65;2.03;;;;;;;;;;5079916;28;20032;-67
2023/08/06 13:09:12;;;;;;;96.45;72.05;;;;;;;;;;5092904;28;20034;-67
2023/08/06 13:11:41;;;;;;;45.08;35.33;;;;;;;;;;5092817;28;20027;-67
2023/08/06 13:14:09;;;;;;;3.60;3.08;;;;;;;;;;5093111;28;20412;-67
2023/08/06 13:16:36;;;;;;;5.38;4.40;;;;;;;;;;5084457;28;20046;-67
2023/08/06 13:19:02;;;;;;;2.05;1.70;;;;;;;;;;5089792;28;20110;-67
2023/08/06 13:21:34;;;;;;;2.25;1.60;;;;;;;;;;5090514;28;20499;-67
2023/08/06 13:24:00;;;;;;;3.08;2.70;;;;;;;;;;5084811;28;20028;-68
2023/08/06 13:26:26;;;;;;;11.32;7.88;;;;;;;;;;5092700;28;20028;-67
2023/08/06 13:28:52;;;;;;;9.95;5.82;;;;;;;;;;5069592;28;20074;-74
2023/08/06 13:31:18;;;;;;;1.42;1.33;;;;;;;;;;5083930;28;20028;-73
2023/08/06 13:33:44;;;;;;;2.95;1.40;;;;;;;;;;5074783;28;20016;-73
2023/08/06 13:36:10;;;;;;;4.20;1.77;;;;;;;;;;5092353;28;20032;-74
2023/08/06 13:38:36;;;;;;;1.42;1.33;;;;;;;;;;5066406;28;20020;-72
2023/08/06 13:41:02;;;;;;;2.53;1.50;;;;;;;;;;5092420;28;20389;-73
2023/08/06 13:43:28;;;;;;;1.30;1.20;;;;;;;;;;5092824;28;20380;-72
2023/08/06 13:45:55;;;;;;;1.23;1.13;;;;;;;;;;5066058;28;20020;-72
2023/08/06 13:48:21;;;;;;;1.40;1.30;;;;;;;;;;5092084;28;20433;-72
2023/08/06 13:50:47;;;;;;;1.77;1.52;;;;;;;;;;5092237;28;20039;-72
2023/08/06 13:53:13;;;;;;;2.25;1.13;;;;;;;;;;5092388;28;20023;-73
2023/08/06 13:55:39;;;;;;;2.22;1.60;;;;;;;;;;5092154;28;20426;-72
2023/08/06 13:58:05;;;;;;;2.58;1.40;;;;;;;;;;5066843;28;20021;-73
2023/08/06 14:00:31;;;;;;;2.65;1.20;;;;;;;;;;5092290;28;20048;-71
2023/08/06 14:02:57;;;;;;;1.40;1.27;;;;;;;;;;5084810;28;20538;-71
2023/08/06 14:05:23;;;;;;;2.38;1.58;;;;;;;;;;5085914;28;20086;-72
2023/08/06 14:07:49;;;;;;;2.22;1.40;;;;;;;;;;5091242;28;20024;-72
2023/08/06 14:10:15;;;;;;;1.75;1.52;;;;;;;;;;5092028;28;20020;-72
2023/08/06 14:12:41;;;;;;;2.33;1.50;;;;;;;;;;5091601;28;20543;-72
2023/08/06 14:15:07;;;;;;;1.60;1.33;;;;;;;;;;5083126;28;20017;-72
2023/08/06 14:17:33;;;;;;;4.05;1.77;;;;;;;;;;5081658;28;20027;-71
2023/08/06 14:20:00;;;;;;;2.05;1.42;;;;;;;;;;5091542;28;20020;-71
2023/08/06 14:22:26;;;;;;;3.10;1.33;;;;;;;;;;5086023;28;20055;-72
2023/08/06 14:24:53;;;;;;;3.47;1.60;;;;;;;;;;5091703;28;20023;-73